createdAt,value
2022-08-07T00:00:25.724Z,50.91
2022-08-07T00:02:53.925Z,51.54
2022-08-07T00:05:23.633Z,51.20
2022-08-07T00:08:00.351Z,50.33
2022-08-07T00:10:31.212Z,50.67
2022-08-07T00:13:02.307Z,50.40
2022-08-07T00:15:35.882Z,51.26
2022-08-07T00:18:05.590Z,50.51
2022-08-07T00:20:34.499Z,50.96
2022-08-07T00:23:02.910Z,50.96
2022-08-07T00:25:37.560Z,50.66
2022-08-07T00:28:10.677Z,50.16
2022-08-07T00:30:38.758Z,50.37
2022-08-07T00:33:08.418Z,49.89
2022-08-07T00:35:36.695Z,50.61
2022-08-07T00:38:04.787Z,50.97
2022-08-07T00:40:39.837Z,50.97
2022-08-07T00:44:00.920Z,49.90
2022-08-07T00:46:02.360Z,49.49
2022-08-07T00:48:35.299Z,50.32
2022-08-07T00:51:03.135Z,49.96
2022-08-07T00:53:39.229Z,50.35
2022-08-07T00:56:18.787Z,50.54
2022-08-07T00:58:50.018Z,50.62
2022-08-07T01:01:18.114Z,49.98
2022-08-07T01:03:56.860Z,51.36
2022-08-07T01:06:28.900Z,50.60
2022-08-07T01:08:58.609Z,50.31
2022-08-07T01:12:24.024Z,50.26
2022-08-07T01:14:16.880Z,50.23
2022-08-07T01:16:47.235Z,49.72
2022-08-07T01:19:18.803Z,50.67
2022-08-07T01:21:50.051Z,51.66
2022-08-07T01:24:24.064Z,51.43
2022-08-07T01:26:52.621Z,50.82
2022-08-07T01:29:27.856Z,49.98
2022-08-07T01:31:59.905Z,50.77
2022-08-07T01:34:31.108Z,50.76
2022-08-07T01:37:00.147Z,50.58
2022-08-07T01:39:41.168Z,50.28
2022-08-07T01:42:39.888Z,50.93
2022-08-07T01:45:04.406Z,50.28
2022-08-07T01:48:19.394Z,50.85
2022-08-07T01:50:28.823Z,49.63
2022-08-07T01:52:58.402Z,49.83
2022-08-07T01:55:29.107Z,49.81
2022-08-07T01:58:06.136Z,49.98
2022-08-07T02:00:49.960Z,49.62
2022-08-07T02:03:21.902Z,50.30
2022-08-07T02:05:59.702Z,49.95
2022-08-07T02:08:29.268Z,50.18
2022-08-07T02:11:00.125Z,50.64
2022-08-07T02:13:56.591Z,50.31
2022-08-07T02:16:19.852Z,50.70
2022-08-07T02:18:48.945Z,50.08
2022-08-07T02:21:18.470Z,50.33
2022-08-07T02:23:46.506Z,51.37
2022-08-07T02:26:33.029Z,51.50
2022-08-07T02:29:05.590Z,51.30
2022-08-07T02:31:42.653Z,51.16
2022-08-07T02:34:11.516Z,51.13
2022-08-07T02:36:46.196Z,50.88
2022-08-07T02:39:17.508Z,50.36
2022-08-07T02:42:10.285Z,50.11
2022-08-07T02:44:48.150Z,50.28
2022-08-07T02:47:19.709Z,51.25
2022-08-07T02:50:05.025Z,50.62
2022-08-07T02:52:47.834Z,50.44
2022-08-07T02:55:27.592Z,50.03
2022-08-07T02:57:56.174Z,49.99
2022-08-07T03:00:24.912Z,50.18
2022-08-07T03:02:55.408Z,50.74
2022-08-07T03:05:24.766Z,50.45
2022-08-07T03:08:05.262Z,50.25
2022-08-07T03:10:40.623Z,50.42
2022-08-07T03:13:19.788Z,51.06
2022-08-07T03:15:56.290Z,50.59
2022-08-07T03:18:34.643Z,50.40
2022-08-07T03:21:08.603Z,50.68
2022-08-07T03:24:18.159Z,50.72
2022-08-07T03:26:29.074Z,50.85
2022-08-07T03:28:57.485Z,50.76
2022-08-07T03:31:42.422Z,51.01
2022-08-07T03:34:18.696Z,50.98
2022-08-07T03:36:51.082Z,50.67
2022-08-07T03:39:46.570Z,50.87
2022-08-07T03:42:06.551Z,50.60
2022-08-07T03:44:35.202Z,50.67
2022-08-07T03:47:10.735Z,50.21
2022-08-07T03:49:39.551Z,50.26
2022-08-07T03:52:22.331Z,50.62
2022-08-07T03:54:54.868Z,50.35
2022-08-07T03:58:33.262Z,49.92
2022-08-07T04:00:12.223Z,50.54
2022-08-07T04:02:47.272Z,50.47
2022-08-07T04:05:24.034Z,50.14
2022-08-07T04:07:58.230Z,51.35
2022-08-07T04:10:29.483Z,50.52
2022-08-07T04:12:57.996Z,50.62
2022-08-07T04:15:28.127Z,51.08
2022-08-07T04:18:56.589Z,50.65
2022-08-07T04:20:54.650Z,50.77
2022-08-07T04:23:24.902Z,51.22
2022-08-07T04:26:12.081Z,51.57
2022-08-07T04:28:45.219Z,52.11
2022-08-07T04:31:19.767Z,52.09
2022-08-07T04:33:55.062Z,51.78
2022-08-07T04:36:26.425Z,51.83
2022-08-07T04:38:55.306Z,51.47
2022-08-07T04:41:24.430Z,51.59
2022-08-07T04:44:12.139Z,51.31
2022-08-07T04:47:04.387Z,51.14
2022-08-07T04:49:37.711Z,51.77
2022-08-07T04:52:26.448Z,51.68
2022-08-07T04:55:00.489Z,51.46
2022-08-07T04:58:09.598Z,52.25
2022-08-07T05:00:43.386Z,51.50
2022-08-07T05:04:00.936Z,52.43
2022-08-07T05:06:42.957Z,51.63
2022-08-07T05:09:45.973Z,51.78
2022-08-07T05:12:27.334Z,51.32
2022-08-07T05:15:04.087Z,50.88
2022-08-07T05:17:50.355Z,52.42
2022-08-07T05:20:25.722Z,52.15
2022-08-07T05:22:56.002Z,51.15
2022-08-07T05:25:25.884Z,51.46
2022-08-07T05:28:20.004Z,51.29
2022-08-07T05:30:50.114Z,51.03
2022-08-07T05:33:21.651Z,50.56
2022-08-07T05:35:50.730Z,51.05
2022-08-07T05:38:59.954Z,50.98
2022-08-07T05:41:14.114Z,50.67
2022-08-07T05:44:01.324Z,50.66
2022-08-07T05:46:36.689Z,49.89
2022-08-07T05:49:12.059Z,49.87
2022-08-07T05:51:46.363Z,49.82
2022-08-07T05:54:44.524Z,49.92
2022-08-07T05:57:10.095Z,50.21
2022-08-07T05:59:57.422Z,49.99
2022-08-07T06:02:29.209Z,50.02
2022-08-07T06:05:06.252Z,49.83
2022-08-07T06:08:13.170Z,49.44
2022-08-07T06:10:23.604Z,48.93
2022-08-07T06:12:52.054Z,49.02
2022-08-07T06:15:21.454Z,48.66
2022-08-07T06:17:53.880Z,48.53
2022-08-07T06:23:46.373Z,48.15
2022-08-07T06:25:54.666Z,48.12
2022-08-07T06:28:27.147Z,48.11
2022-08-07T06:30:58.358Z,48.22
2022-08-07T06:33:34.011Z,47.94
2022-08-07T06:36:13.799Z,47.68
2022-08-07T06:38:58.394Z,48.56
2022-08-07T06:42:00.503Z,46.99
2022-08-07T06:44:16.400Z,47.34
2022-08-07T06:46:53.763Z,47.50
2022-08-07T06:49:33.939Z,47.89
2022-08-07T06:52:31.628Z,48.63
2022-08-07T06:55:33.576Z,49.72
2022-08-07T06:57:59.203Z,51.96
2022-08-07T07:00:35.035Z,50.84
2022-08-07T07:03:10.920Z,52.55
2022-08-07T07:06:02.626Z,53.81
2022-08-07T07:08:46.452Z,52.38
2022-08-07T07:12:07.848Z,51.66
2022-08-07T07:14:08.336Z,53.08
2022-08-07T07:16:50.605Z,52.83
2022-08-07T07:19:56.579Z,51.27
2022-08-07T07:22:35.703Z,50.52
2022-08-07T07:26:30.844Z,51.73
2022-08-07T07:28:29.955Z,51.87
2022-08-07T07:31:17.112Z,53.08
2022-08-07T07:33:54.919Z,51.92
2022-08-07T07:36:32.662Z,50.10
2022-08-07T07:39:01.708Z,49.50
2022-08-07T07:41:50.736Z,50.19
2022-08-07T07:44:26.158Z,51.80
2022-08-07T07:47:04.402Z,49.05
2022-08-07T07:50:36.040Z,48.78
2022-08-07T07:52:32.583Z,47.13
2022-08-07T07:55:01.179Z,47.73
2022-08-07T07:57:50.465Z,44.81
2022-08-07T08:00:31.266Z,44.45
2022-08-07T08:03:07.141Z,43.16
2022-08-07T08:05:43.233Z,42.71
2022-08-07T08:08:36.880Z,42.79
2022-08-07T08:11:16.592Z,42.87
2022-08-07T08:13:57.268Z,43.61
2022-08-07T08:16:40.190Z,42.11
2022-08-07T08:19:17.935Z,42.01
2022-08-07T08:22:34.213Z,43.67
2022-08-07T08:25:25.046Z,41.56
2022-08-07T08:28:23.937Z,42.44
2022-08-07T08:31:14.819Z,41.87
2022-08-07T08:33:49.764Z,41.37
2022-08-07T08:36:30.089Z,41.68
2022-08-07T08:39:03.145Z,41.98
2022-08-07T08:41:58.565Z,41.45
2022-08-07T08:44:44.316Z,41.10
2022-08-07T08:47:25.620Z,40.56
2022-08-07T08:50:02.619Z,39.26
2022-08-07T08:52:40.843Z,39.33
2022-08-07T08:55:55.266Z,37.63
2022-08-07T08:58:29.750Z,38.08
2022-08-07T09:01:19.200Z,36.93
2022-08-07T09:09:30.033Z,36.80
2022-08-07T09:12:31.284Z,36.99
2022-08-07T09:16:20.667Z,36.27
2022-08-07T09:18:11.529Z,35.75
2022-08-07T09:20:58.007Z,37.89
2022-08-07T09:24:31.343Z,37.83
2022-08-07T09:26:28.203Z,36.88
2022-08-07T09:30:03.525Z,35.24
2022-08-07T09:32:01.524Z,35.12
2022-08-07T09:34:53.899Z,35.77
2022-08-07T09:37:48.239Z,35.06
2022-08-07T09:40:47.121Z,36.03
2022-08-07T09:44:03.298Z,37.83
2022-08-07T09:47:50.660Z,35.59
2022-08-07T09:50:02.148Z,35.31
2022-08-07T09:52:34.633Z,35.20
2022-08-07T09:55:17.296Z,35.47
2022-08-07T09:58:17.684Z,36.84
2022-08-07T10:01:08.253Z,36.45
2022-08-07T10:04:05.725Z,36.59
2022-08-07T10:06:49.206Z,36.35
2022-08-07T10:10:00.044Z,36.15
2022-08-07T10:12:39.630Z,36.11
2022-08-07T10:15:15.493Z,35.81
2022-08-07T10:18:13.139Z,35.73
2022-08-07T10:21:19.847Z,35.28
2022-08-07T10:24:21.565Z,36.40
2022-08-07T10:26:54.289Z,37.31
2022-08-07T10:29:30.149Z,35.48
2022-08-07T10:32:02.077Z,35.47
2022-08-07T10:34:47.383Z,34.38
2022-08-07T10:37:16.734Z,34.90
2022-08-07T10:39:57.577Z,36.89
2022-08-07T10:45:57.229Z,34.62
2022-08-07T10:48:25.561Z,34.72
2022-08-07T10:51:57.222Z,34.98
2022-08-07T10:54:20.353Z,34.68
2022-08-07T10:57:09.384Z,34.25
2022-08-07T10:59:54.085Z,35.55
2022-08-07T11:02:32.952Z,34.67
2022-08-07T11:05:24.330Z,34.11
2022-08-07T11:08:12.563Z,33.39
2022-08-07T11:11:00.251Z,33.91
2022-08-07T11:14:44.577Z,33.32
2022-08-07T11:16:52.865Z,33.96
2022-08-07T11:19:35.676Z,33.66
2022-08-07T11:22:27.335Z,32.24
2022-08-07T11:25:09.180Z,32.23
2022-08-07T11:28:01.646Z,32.66
2022-08-07T11:30:53.027Z,31.29
2022-08-07T11:33:53.795Z,30.22
2022-08-07T11:36:46.743Z,31.27
2022-08-07T11:43:29.582Z,31.35
2022-08-07T11:46:32.142Z,32.95
2022-08-07T11:49:50.458Z,30.22
2022-08-07T11:52:00.887Z,30.19
2022-08-07T11:54:38.972Z,30.25
2022-08-07T12:00:10.778Z,31.05
2022-08-07T12:03:44.833Z,31.63
2022-08-07T12:06:39.959Z,28.70
2022-08-07T12:09:01.492Z,34.62
2022-08-07T12:11:35.182Z,30.15
2022-08-07T12:14:24.783Z,28.70
2022-08-07T12:16:58.920Z,31.94
2022-08-07T12:20:03.212Z,30.65
2022-08-07T12:22:56.367Z,29.33
2022-08-07T12:26:05.700Z,28.95
2022-08-07T12:28:49.859Z,28.86
2022-08-07T12:31:53.395Z,28.58
2022-08-07T12:34:32.120Z,31.60
2022-08-07T12:37:08.635Z,32.06
2022-08-07T12:39:51.114Z,31.32
2022-08-07T12:42:27.797Z,30.31
2022-08-07T12:45:05.805Z,29.69
2022-08-07T12:47:44.482Z,29.42
2022-08-07T12:50:40.222Z,30.52
2022-08-07T12:54:02.713Z,29.01
2022-08-07T12:56:22.749Z,28.80
2022-08-07T12:59:01.397Z,28.34
2022-08-07T13:01:43.214Z,31.52
2022-08-07T13:04:34.558Z,29.02
2022-08-07T13:07:07.077Z,31.12
2022-08-07T13:10:21.532Z,28.31
2022-08-07T13:12:36.421Z,27.76
2022-08-07T13:15:23.612Z,28.25
2022-08-07T13:18:07.527Z,28.50
2022-08-07T13:20:54.285Z,27.60
2022-08-07T13:24:01.729Z,28.48
2022-08-07T13:26:36.481Z,28.01
2022-08-07T13:29:13.831Z,27.44
2022-08-07T13:31:57.274Z,29.35
2022-08-07T13:34:35.732Z,26.37
2022-08-07T13:37:19.897Z,27.45
2022-08-07T13:40:36.702Z,27.48
2022-08-07T13:42:39.925Z,28.62
2022-08-07T13:46:07.057Z,28.30
2022-08-07T13:48:06.241Z,29.15
2022-08-07T13:51:00.645Z,30.88
2022-08-07T13:53:55.172Z,29.06
2022-08-07T13:56:35.548Z,30.89
2022-08-07T13:59:16.315Z,31.43
2022-08-07T14:02:04.603Z,28.79
2022-08-07T14:04:50.311Z,28.64
2022-08-07T14:07:35.275Z,27.65
2022-08-07T14:10:43.596Z,29.62
2022-08-07T14:13:19.206Z,28.34
2022-08-07T14:15:56.992Z,28.88
2022-08-07T14:18:37.658Z,28.95
2022-08-07T14:22:00.458Z,28.90
2022-08-07T14:24:08.929Z,28.65
2022-08-07T14:26:50.733Z,29.07
2022-08-07T14:30:07.940Z,28.87
2022-08-07T14:32:12.383Z,29.18
2022-08-07T14:34:46.252Z,29.44
2022-08-07T14:37:18.222Z,28.49
2022-08-07T14:40:16.565Z,29.16
2022-08-07T14:43:01.483Z,29.00
2022-08-07T14:45:48.717Z,28.95
2022-08-07T14:48:35.211Z,28.46
2022-08-07T14:51:15.929Z,29.83
2022-08-07T14:54:30.952Z,29.63
2022-08-07T14:56:59.208Z,28.50
2022-08-07T15:00:05.000Z,29.06
2022-08-07T15:02:31.860Z,30.52
2022-08-07T15:05:20.501Z,28.65
2022-08-07T15:07:55.215Z,28.63
2022-08-07T15:10:30.032Z,28.91
2022-08-07T15:13:11.640Z,28.66
2022-08-07T15:18:40.248Z,28.81
2022-08-07T15:21:58.772Z,28.87
2022-08-07T15:25:14.122Z,28.37
2022-08-07T15:27:15.529Z,28.65
2022-08-07T15:30:06.943Z,29.75
2022-08-07T15:44:01.839Z,29.32
2022-08-07T15:46:32.348Z,29.21
2022-08-07T15:50:03.507Z,29.96
2022-08-07T15:52:17.164Z,29.93
2022-08-07T15:54:51.403Z,29.80
2022-08-07T15:57:39.883Z,29.67
2022-08-07T16:00:31.620Z,29.82
2022-08-07T16:03:46.124Z,29.63
2022-08-07T16:06:14.259Z,29.87
2022-08-07T16:08:45.636Z,30.48
2022-08-07T16:11:28.793Z,29.73
2022-08-07T16:14:03.644Z,29.76
2022-08-07T16:16:57.055Z,29.85
2022-08-07T16:19:58.941Z,30.23
2022-08-07T16:22:54.333Z,30.26
2022-08-07T16:25:54.169Z,29.83
2022-08-07T16:29:18.500Z,29.98
2022-08-07T16:31:50.973Z,29.96
2022-08-07T16:34:18.313Z,30.03
2022-08-07T16:37:02.014Z,30.66
2022-08-07T16:39:49.322Z,30.04
2022-08-07T16:42:24.497Z,30.43
2022-08-07T16:45:30.986Z,30.10
2022-08-07T16:48:02.563Z,30.32
2022-08-07T16:50:52.767Z,30.66
2022-08-07T16:54:02.166Z,30.36
2022-08-07T16:56:22.173Z,30.36
2022-08-07T16:59:14.537Z,30.49
2022-08-07T17:01:59.594Z,30.74
2022-08-07T17:04:57.739Z,30.35
2022-08-07T17:07:55.046Z,30.59
2022-08-07T17:10:33.843Z,30.07
2022-08-07T17:13:08.368Z,30.93
2022-08-07T17:15:58.572Z,30.75
2022-08-07T17:18:34.267Z,30.44
2022-08-07T17:21:18.906Z,30.11
2022-08-07T17:24:24.987Z,30.63
2022-08-07T17:26:59.357Z,30.83
2022-08-07T17:30:14.632Z,32.70
2022-08-07T17:32:57.863Z,31.81
2022-08-07T17:35:55.164Z,31.25
2022-08-07T17:38:34.179Z,31.19
2022-08-07T17:42:02.295Z,31.90
2022-08-07T17:44:05.813Z,32.92
2022-08-07T17:46:46.354Z,33.03
2022-08-07T17:49:30.204Z,33.55
2022-08-07T17:52:35.969Z,33.29
2022-08-07T17:56:01.334Z,33.57
2022-08-07T17:58:40.436Z,34.25
2022-08-07T18:01:21.448Z,35.04
2022-08-07T18:04:07.190Z,34.99
2022-08-07T18:06:42.993Z,35.72
2022-08-07T18:10:05.710Z,35.40
2022-08-07T18:14:50.366Z,36.56
2022-08-07T18:18:33.083Z,35.22
2022-08-07T18:21:04.366Z,36.47
2022-08-07T18:23:43.262Z,36.49
2022-08-07T18:26:33.530Z,36.39
2022-08-07T18:30:06.394Z,36.26
2022-08-07T18:32:41.693Z,36.08
2022-08-07T18:35:24.163Z,36.52
2022-08-07T18:38:56.626Z,36.10
2022-08-07T18:41:16.845Z,35.25
2022-08-07T18:46:51.313Z,34.05
2022-08-07T18:50:32.401Z,34.17
2022-08-07T18:55:56.242Z,33.83
2022-08-07T18:58:34.979Z,34.12
2022-08-07T19:02:17.050Z,34.41
2022-08-07T19:04:09.631Z,34.76
2022-08-07T19:06:51.246Z,34.09
2022-08-07T19:09:57.129Z,35.45
2022-08-07T19:12:26.491Z,34.73
2022-08-07T19:15:22.857Z,35.52
2022-08-07T19:22:30.868Z,35.88
2022-08-07T19:25:06.652Z,36.01
2022-08-07T19:28:30.838Z,36.70
2022-08-07T19:31:00.839Z,36.38
2022-08-07T19:36:27.834Z,35.33
2022-08-07T19:39:01.746Z,36.41
2022-08-07T19:42:08.568Z,36.39
2022-08-07T19:44:58.899Z,36.58
2022-08-07T19:47:29.526Z,37.27
2022-08-07T19:50:45.345Z,37.05
2022-08-07T19:54:33.607Z,38.06
2022-08-07T19:59:00.375Z,35.59
2022-08-07T20:01:52.745Z,33.28
2022-08-07T20:04:37.534Z,32.82
2022-08-07T20:07:14.290Z,32.56
2022-08-07T20:10:35.274Z,32.21
2022-08-07T20:12:59.075Z,31.85
2022-08-07T20:15:32.979Z,31.70
2022-08-07T20:18:19.918Z,31.44
2022-08-07T20:20:57.317Z,31.39
2022-08-07T20:23:42.947Z,31.34
2022-08-07T20:26:32.055Z,32.28
2022-08-07T20:29:10.528Z,32.12
2022-08-07T20:34:49.751Z,31.34
2022-08-07T20:37:25.695Z,31.66
2022-08-07T20:40:02.774Z,31.88
2022-08-07T20:42:40.187Z,31.94
2022-08-07T20:45:33.436Z,31.51
2022-08-07T20:48:02.356Z,31.24
2022-08-07T20:50:35.380Z,31.29
2022-08-07T20:53:10.308Z,31.19
2022-08-07T20:55:47.669Z,31.37
2022-08-07T20:58:19.546Z,31.30
2022-08-07T21:00:57.888Z,31.38
2022-08-07T21:03:34.528Z,31.80
2022-08-07T21:06:21.603Z,31.92
2022-08-07T21:09:24.592Z,32.46
2022-08-07T21:11:57.367Z,33.34
2022-08-07T21:14:33.039Z,34.96
2022-08-07T21:18:01.928Z,34.21
2022-08-07T21:20:05.807Z,34.38
2022-08-07T21:22:35.035Z,34.88
2022-08-07T21:25:12.933Z,34.50
2022-08-07T21:27:47.172Z,34.21
2022-08-07T21:30:17.229Z,35.10
2022-08-07T21:32:55.755Z,35.70
2022-08-07T21:35:34.743Z,35.71
2022-08-07T21:38:39.557Z,34.08
2022-08-07T21:41:19.539Z,34.76
2022-08-07T21:43:56.750Z,34.22
2022-08-07T21:46:31.784Z,33.70
2022-08-07T21:49:16.394Z,33.55
2022-08-07T21:51:54.883Z,33.99
2022-08-07T21:54:24.722Z,33.91
2022-08-07T21:57:05.794Z,34.21
2022-08-07T22:00:03.992Z,34.83
2022-08-07T22:02:37.714Z,34.18
2022-08-07T22:05:12.249Z,33.67
2022-08-07T22:07:59.564Z,33.02
2022-08-07T22:10:32.760Z,33.70
2022-08-07T22:13:09.212Z,34.04
2022-08-07T22:16:39.248Z,33.92
2022-08-07T22:18:36.201Z,34.47
2022-08-07T22:21:19.266Z,34.65
2022-08-07T22:24:00.442Z,34.91
2022-08-07T22:26:48.470Z,34.29
2022-08-07T22:29:51.960Z,34.45
2022-08-07T22:32:42.514Z,34.95
2022-08-07T22:35:11.821Z,35.17
2022-08-07T22:38:03.524Z,35.75
2022-08-07T22:40:51.457Z,36.07
2022-08-07T22:43:27.917Z,35.90
2022-08-07T22:46:42.885Z,35.20
2022-08-07T22:48:55.478Z,35.83
2022-08-07T22:51:49.004Z,35.49
2022-08-07T22:54:22.484Z,36.77
2022-08-07T22:56:53.279Z,37.50
2022-08-07T22:59:32.723Z,37.98
2022-08-07T23:02:15.587Z,37.50
2022-08-07T23:06:07.065Z,37.58
2022-08-07T23:07:58.716Z,37.80
2022-08-07T23:10:42.303Z,38.06
2022-08-07T23:13:21.538Z,38.19
2022-08-07T23:16:46.824Z,38.49
2022-08-07T23:19:19.465Z,39.67
2022-08-07T23:22:06.654Z,39.87
2022-08-07T23:24:48.808Z,39.99
2022-08-07T23:27:33.606Z,39.96
2022-08-07T23:30:39.545Z,40.49
2022-08-07T23:34:20.300Z,39.78
2022-08-07T23:36:01.881Z,40.39
2022-08-07T23:38:54.619Z,40.87
2022-08-07T23:42:04.337Z,41.49
2022-08-07T23:44:35.514Z,41.52
2022-08-07T23:47:10.492Z,41.86
2022-08-07T23:49:50.427Z,42.82
2022-08-07T23:53:05.898Z,43.28
2022-08-07T23:55:51.994Z,42.76
2022-08-07T23:58:18.747Z,42.06
